Terminal Aerodrome Forecast
Issued by NWS Jacksonville, FL

Home | Current Version | Previous Version | Text Only | Print | Product List | Glossary On
Versions: 1 2 3 4 5 6 7 8 9 10 11 12 13 14 15 16 17 18 19 20 21 22
000
FTUS42 KJAX 070548
TAFGNV
TAF
KGNV 070548Z 0706/0806 00000KT P6SM SCT150 BKN250
     FM071500 26005KT P6SM SCT035 SCT250
     FM071900 13005KT P6SM VCTS SCT045CB SCT150 BKN250 PROB30
      0719/0723 VRB15G25KT 3SM TSRA BR SCT020 BKN040CB OVC100
     FM080000 VRB05KT P6SM FEW050 SCT150 BKN250=

USA.gov is the U.S. government's official web portal to all federal, state and local government web resources and services.